sensor_id;sensor_type;location;lat;lon;timestamp;P1;durP1;ratioP1;P2;durP2;ratioP2
38637;SDS011;24401;53.034;-3.030;2023-11-19T00:01:44;12.93;;;1.77;;
38637;SDS011;24401;53.034;-3.030;2023-11-19T00:04:14;15.63;;;1.73;;
38637;SDS011;24401;53.034;-3.030;2023-11-19T00:06:44;5.80;;;1.80;;
38637;SDS011;24401;53.034;-3.030;2023-11-19T00:09:15;6.47;;;1.97;;
38637;SDS011;24401;53.034;-3.030;2023-11-19T00:14:17;6.72;;;1.40;;
38637;SDS011;24401;53.034;-3.030;2023-11-19T00:16:47;8.40;;;1.83;;
38637;SDS011;24401;53.034;-3.030;2023-11-19T00:19:17;7.37;;;2.00;;
38637;SDS011;24401;53.034;-3.030;2023-11-19T00:21:48;8.67;;;2.20;;
38637;SDS011;24401;53.034;-3.030;2023-11-19T00:24:18;11.80;;;1.83;;
38637;SDS011;24401;53.034;-3.030;2023-11-19T00:26:48;12.73;;;1.77;;
38637;SDS011;24401;53.034;-3.030;2023-11-19T00:29:20;11.93;;;1.70;;
38637;SDS011;24401;53.034;-3.030;2023-11-19T00:31:50;18.57;;;2.13;;
38637;SDS011;24401;53.034;-3.030;2023-11-19T00:34:21;13.33;;;2.67;;
38637;SDS011;24401;53.034;-3.030;2023-11-19T00:36:52;16.05;;;2.85;;
38637;SDS011;24401;53.034;-3.030;2023-11-19T00:39:22;11.13;;;2.00;;
38637;SDS011;24401;53.034;-3.030;2023-11-19T00:41:53;7.10;;;1.73;;
38637;SDS011;24401;53.034;-3.030;2023-11-19T00:44:23;10.50;;;2.07;;
38637;SDS011;24401;53.034;-3.030;2023-11-19T00:46:53;10.50;;;1.80;;
38637;SDS011;24401;53.034;-3.030;2023-11-19T00:49:23;14.47;;;2.20;;
38637;SDS011;24401;53.034;-3.030;2023-11-19T00:51:53;12.07;;;2.40;;
38637;SDS011;24401;53.034;-3.030;2023-11-19T00:54:24;15.83;;;2.20;;
38637;SDS011;24401;53.034;-3.030;2023-11-19T00:56:55;6.05;;;1.60;;
38637;SDS011;24401;53.034;-3.030;2023-11-19T00:59:25;16.67;;;1.97;;
38637;SDS011;24401;53.034;-3.030;2023-11-19T01:01:56;22.27;;;2.03;;
38637;SDS011;24401;53.034;-3.030;2023-11-19T01:04:26;7.23;;;2.23;;
38637;SDS011;24401;53.034;-3.030;2023-11-19T01:06:56;8.67;;;2.43;;
38637;SDS011;24401;53.034;-3.030;2023-11-19T01:09:27;8.10;;;1.70;;
38637;SDS011;24401;53.034;-3.030;2023-11-19T01:11:57;14.97;;;2.33;;
38637;SDS011;24401;53.034;-3.030;2023-11-19T01:14:28;9.37;;;1.90;;
38637;SDS011;24401;53.034;-3.030;2023-11-19T01:16:58;9.63;;;2.80;;
38637;SDS011;24401;53.034;-3.030;2023-11-19T01:19:28;16.57;;;2.43;;
38637;SDS011;24401;53.034;-3.030;2023-11-19T01:21:59;7.43;;;2.00;;
38637;SDS011;24401;53.034;-3.030;2023-11-19T01:24:29;8.73;;;1.87;;
38637;SDS011;24401;53.034;-3.030;2023-11-19T01:29:31;11.65;;;1.85;;
38637;SDS011;24401;53.034;-3.030;2023-11-19T01:32:01;12.33;;;2.87;;
38637;SDS011;24401;53.034;-3.030;2023-11-19T01:34:31;13.67;;;1.60;;
38637;SDS011;24401;53.034;-3.030;2023-11-19T01:37:02;21.10;;;2.60;;
38637;SDS011;24401;53.034;-3.030;2023-11-19T01:39:32;18.43;;;2.60;;
38637;SDS011;24401;53.034;-3.030;2023-11-19T01:42:02;14.60;;;2.00;;
38637;SDS011;24401;53.034;-3.030;2023-11-19T01:44:33;14.47;;;2.97;;
38637;SDS011;24401;53.034;-3.030;2023-11-19T01:47:03;12.43;;;2.30;;
38637;SDS011;24401;53.034;-3.030;2023-11-19T01:49:34;13.00;;;2.00;;
38637;SDS011;24401;53.034;-3.030;2023-11-19T01:52:04;17.10;;;2.33;;
38637;SDS011;24401;53.034;-3.030;2023-11-19T01:54:35;15.73;;;2.40;;
38637;SDS011;24401;53.034;-3.030;2023-11-19T01:57:05;24.60;;;2.63;;
38637;SDS011;24401;53.034;-3.030;2023-11-19T01:59:36;12.60;;;1.93;;
38637;SDS011;24401;53.034;-3.030;2023-11-19T02:02:06;13.30;;;2.67;;
38637;SDS011;24401;53.034;-3.030;2023-11-19T02:04:37;6.57;;;2.23;;
38637;SDS011;24401;53.034;-3.030;2023-11-19T02:07:08;10.90;;;2.17;;
38637;SDS011;24401;53.034;-3.030;2023-11-19T02:09:39;11.60;;;3.47;;
38637;SDS011;24401;53.034;-3.030;2023-11-19T02:12:12;7.32;;;2.65;;
38637;SDS011;24401;53.034;-3.030;2023-11-19T02:14:42;17.47;;;2.40;;
38637;SDS011;24401;53.034;-3.030;2023-11-19T02:17:25;11.83;;;2.50;;
38637;SDS011;24401;53.034;-3.030;2023-11-19T02:19:55;18.27;;;2.67;;
38637;SDS011;24401;53.034;-3.030;2023-11-19T02:22:25;14.03;;;2.20;;
38637;SDS011;24401;53.034;-3.030;2023-11-19T02:24:58;13.87;;;2.10;;
38637;SDS011;24401;53.034;-3.030;2023-11-19T02:30:18;21.38;;;2.92;;
38637;SDS011;24401;53.034;-3.030;2023-11-19T02:32:48;13.33;;;1.67;;
38637;SDS011;24401;53.034;-3.030;2023-11-19T02:35:18;16.37;;;2.23;;
38637;SDS011;24401;53.034;-3.030;2023-11-19T02:37:49;6.70;;;2.00;;
38637;SDS011;24401;53.034;-3.030;2023-11-19T02:40:19;7.00;;;1.70;;
38637;SDS011;24401;53.034;-3.030;2023-11-19T02:42:50;11.00;;;2.20;;
38637;SDS011;24401;53.034;-3.030;2023-11-19T02:45:22;16.47;;;2.20;;
38637;SDS011;24401;53.034;-3.030;2023-11-19T02:47:52;12.63;;;2.38;;
38637;SDS011;24401;53.034;-3.030;2023-11-19T02:50:22;8.53;;;1.87;;
38637;SDS011;24401;53.034;-3.030;2023-11-19T02:52:56;8.68;;;2.33;;
38637;SDS011;24401;53.034;-3.030;2023-11-19T02:55:26;15.83;;;2.10;;
38637;SDS011;24401;53.034;-3.030;2023-11-19T02:58:00;10.63;;;2.50;;
38637;SDS011;24401;53.034;-3.030;2023-11-19T03:00:30;11.10;;;1.87;;
38637;SDS011;24401;53.034;-3.030;2023-11-19T03:03:06;7.57;;;1.88;;
38637;SDS011;24401;53.034;-3.030;2023-11-19T03:05:48;6.60;;;2.10;;
38637;SDS011;24401;53.034;-3.030;2023-11-19T03:08:18;20.13;;;2.40;;
38637;SDS011;24401;53.034;-3.030;2023-11-19T03:10:48;10.70;;;2.00;;
38637;SDS011;24401;53.034;-3.030;2023-11-19T03:13:19;12.30;;;2.17;;
38637;SDS011;24401;53.034;-3.030;2023-11-19T03:15:49;4.33;;;1.47;;
38637;SDS011;24401;53.034;-3.030;2023-11-19T03:18:20;7.33;;;1.97;;
38637;SDS011;24401;53.034;-3.030;2023-11-19T03:20:50;11.93;;;1.20;;
38637;SDS011;24401;53.034;-3.030;2023-11-19T03:25:53;9.73;;;1.63;;
38637;SDS011;24401;53.034;-3.030;2023-11-19T03:28:23;8.10;;;1.73;;
38637;SDS011;24401;53.034;-3.030;2023-11-19T03:30:53;8.00;;;0.90;;
38637;SDS011;24401;53.034;-3.030;2023-11-19T03:33:23;5.97;;;1.23;;
38637;SDS011;24401;53.034;-3.030;2023-11-19T03:35:58;4.18;;;0.75;;
38637;SDS011;24401;53.034;-3.030;2023-11-19T03:38:29;10.50;;;1.17;;
38637;SDS011;24401;53.034;-3.030;2023-11-19T03:40:59;8.90;;;0.73;;
38637;SDS011;24401;53.034;-3.030;2023-11-19T03:43:30;2.00;;;0.77;;
38637;SDS011;24401;53.034;-3.030;2023-11-19T03:48:31;1.55;;;0.43;;
38637;SDS011;24401;53.034;-3.030;2023-11-19T03:51:01;2.53;;;0.67;;
38637;SDS011;24401;53.034;-3.030;2023-11-19T03:53:31;2.77;;;0.73;;
38637;SDS011;24401;53.034;-3.030;2023-11-19T03:56:02;2.43;;;1.00;;
38637;SDS011;24401;53.034;-3.030;2023-11-19T03:58:32;5.83;;;0.93;;
38637;SDS011;24401;53.034;-3.030;2023-11-19T04:01:02;11.43;;;1.27;;
38637;SDS011;24401;53.034;-3.030;2023-11-19T04:03:33;9.73;;;1.33;;
38637;SDS011;24401;53.034;-3.030;2023-11-19T04:06:03;10.80;;;1.63;;
38637;SDS011;24401;53.034;-3.030;2023-11-19T04:08:34;11.13;;;1.87;;
38637;SDS011;24401;53.034;-3.030;2023-11-19T04:11:05;7.35;;;1.67;;
38637;SDS011;24401;53.034;-3.030;2023-11-19T04:13:36;9.27;;;1.33;;
38637;SDS011;24401;53.034;-3.030;2023-11-19T04:16:06;11.33;;;2.17;;
38637;SDS011;24401;53.034;-3.030;2023-11-19T04:18:37;7.00;;;2.23;;
38637;SDS011;24401;53.034;-3.030;2023-11-19T04:21:07;11.20;;;2.37;;
38637;SDS011;24401;53.034;-3.030;2023-11-19T04:23:37;6.63;;;2.20;;
38637;SDS011;24401;53.034;-3.030;2023-11-19T04:26:07;13.47;;;2.23;;
38637;SDS011;24401;53.034;-3.030;2023-11-19T04:28:38;11.33;;;1.87;;
38637;SDS011;24401;53.034;-3.030;2023-11-19T04:31:08;14.53;;;2.20;;
38637;SDS011;24401;53.034;-3.030;2023-11-19T04:33:39;10.80;;;2.50;;
38637;SDS011;24401;53.034;-3.030;2023-11-19T04:36:10;10.83;;;1.50;;
38637;SDS011;24401;53.034;-3.030;2023-11-19T04:38:40;12.63;;;2.37;;
38637;SDS011;24401;53.034;-3.030;2023-11-19T04:41:11;8.23;;;1.70;;
38637;SDS011;24401;53.034;-3.030;2023-11-19T04:43:41;7.67;;;1.50;;
38637;SDS011;24401;53.034;-3.030;2023-11-19T04:46:11;10.63;;;2.10;;
38637;SDS011;24401;53.034;-3.030;2023-11-19T04:48:42;9.07;;;1.50;;
38637;SDS011;24401;53.034;-3.030;2023-11-19T04:51:12;4.43;;;1.00;;
38637;SDS011;24401;53.034;-3.030;2023-11-19T04:53:42;10.23;;;1.90;;
38637;SDS011;24401;53.034;-3.030;2023-11-19T04:56:12;5.47;;;0.93;;
38637;SDS011;24401;53.034;-3.030;2023-11-19T04:58:43;3.47;;;0.97;;
38637;SDS011;24401;53.034;-3.030;2023-11-19T05:01:14;10.17;;;1.13;;
38637;SDS011;24401;53.034;-3.030;2023-11-19T05:03:47;6.88;;;1.40;;
38637;SDS011;24401;53.034;-3.030;2023-11-19T05:06:18;9.63;;;1.60;;
38637;SDS011;24401;53.034;-3.030;2023-11-19T05:08:48;5.60;;;1.30;;
38637;SDS011;24401;53.034;-3.030;2023-11-19T05:11:18;9.73;;;1.57;;
38637;SDS011;24401;53.034;-3.030;2023-11-19T05:13:49;4.30;;;0.93;;
38637;SDS011;24401;53.034;-3.030;2023-11-19T05:16:20;4.97;;;0.70;;
38637;SDS011;24401;53.034;-3.030;2023-11-19T05:18:51;3.27;;;0.77;;
38637;SDS011;24401;53.034;-3.030;2023-11-19T05:21:21;8.90;;;1.67;;
38637;SDS011;24401;53.034;-3.030;2023-11-19T05:23:51;6.70;;;1.37;;
38637;SDS011;24401;53.034;-3.030;2023-11-19T05:26:22;5.77;;;0.90;;
38637;SDS011;24401;53.034;-3.030;2023-11-19T05:28:52;7.57;;;1.37;;
38637;SDS011;24401;53.034;-3.030;2023-11-19T05:31:23;11.87;;;1.90;;
38637;SDS011;24401;53.034;-3.030;2023-11-19T05:33:53;10.47;;;2.20;;
38637;SDS011;24401;53.034;-3.030;2023-11-19T05:36:23;10.70;;;1.50;;
38637;SDS011;24401;53.034;-3.030;2023-11-19T05:38:53;9.47;;;2.00;;
38637;SDS011;24401;53.034;-3.030;2023-11-19T05:41:23;8.40;;;1.33;;
38637;SDS011;24401;53.034;-3.030;2023-11-19T05:43:54;6.73;;;1.83;;
38637;SDS011;24401;53.034;-3.030;2023-11-19T05:46:24;3.37;;;1.43;;
38637;SDS011;24401;53.034;-3.030;2023-11-19T05:48:57;5.38;;;1.38;;
38637;SDS011;24401;53.034;-3.030;2023-11-19T05:51:27;4.87;;;1.30;;
38637;SDS011;24401;53.034;-3.030;2023-11-19T05:53:57;3.67;;;1.13;;
38637;SDS011;24401;53.034;-3.030;2023-11-19T05:56:27;3.20;;;0.60;;
38637;SDS011;24401;53.034;-3.030;2023-11-19T05:59:02;3.42;;;1.30;;
38637;SDS011;24401;53.034;-3.030;2023-11-19T06:04:14;5.00;;;1.23;;
38637;SDS011;24401;53.034;-3.030;2023-11-19T06:06:46;6.05;;;1.10;;
38637;SDS011;24401;53.034;-3.030;2023-11-19T06:09:16;7.27;;;1.50;;
38637;SDS011;24401;53.034;-3.030;2023-11-19T06:11:49;4.28;;;1.08;;
38637;SDS011;24401;53.034;-3.030;2023-11-19T06:14:19;8.17;;;1.80;;
38637;SDS011;24401;53.034;-3.030;2023-11-19T06:16:49;5.23;;;1.23;;
38637;SDS011;24401;53.034;-3.030;2023-11-19T06:19:21;9.43;;;1.60;;
38637;SDS011;24401;53.034;-3.030;2023-11-19T06:21:54;6.38;;;1.40;;
38637;SDS011;24401;53.034;-3.030;2023-11-19T06:24:24;15.87;;;2.03;;
38637;SDS011;24401;53.034;-3.030;2023-11-19T06:26:55;16.13;;;1.53;;
38637;SDS011;24401;53.034;-3.030;2023-11-19T06:29:25;6.90;;;1.07;;
38637;SDS011;24401;53.034;-3.030;2023-11-19T06:31:55;8.90;;;1.53;;
38637;SDS011;24401;53.034;-3.030;2023-11-19T06:34:25;4.57;;;1.00;;
38637;SDS011;24401;53.034;-3.030;2023-11-19T06:36:56;2.13;;;1.00;;
38637;SDS011;24401;53.034;-3.030;2023-11-19T06:39:26;7.03;;;1.10;;
38637;SDS011;24401;53.034;-3.030;2023-11-19T06:41:56;5.47;;;1.23;;
38637;SDS011;24401;53.034;-3.030;2023-11-19T06:44:26;3.93;;;1.17;;
38637;SDS011;24401;53.034;-3.030;2023-11-19T06:46:57;4.63;;;0.70;;
38637;SDS011;24401;53.034;-3.030;2023-11-19T06:49:27;2.57;;;0.57;;
38637;SDS011;24401;53.034;-3.030;2023-11-19T06:51:58;4.50;;;0.83;;
38637;SDS011;24401;53.034;-3.030;2023-11-19T06:54:28;4.57;;;0.73;;
38637;SDS011;24401;53.034;-3.030;2023-11-19T06:56:58;3.17;;;0.80;;
38637;SDS011;24401;53.034;-3.030;2023-11-19T06:59:29;1.90;;;0.80;;
38637;SDS011;24401;53.034;-3.030;2023-11-19T07:01:59;3.37;;;0.50;;
38637;SDS011;24401;53.034;-3.030;2023-11-19T07:04:30;7.13;;;0.97;;
38637;SDS011;24401;53.034;-3.030;2023-11-19T07:07:00;5.40;;;0.63;;
38637;SDS011;24401;53.034;-3.030;2023-11-19T07:09:30;4.73;;;0.63;;
38637;SDS011;24401;53.034;-3.030;2023-11-19T07:12:00;3.60;;;0.97;;
38637;SDS011;24401;53.034;-3.030;2023-11-19T07:14:32;10.57;;;1.02;;
38637;SDS011;24401;53.034;-3.030;2023-11-19T07:17:02;1.93;;;0.57;;
38637;SDS011;24401;53.034;-3.030;2023-11-19T07:19:32;6.47;;;0.80;;
38637;SDS011;24401;53.034;-3.030;2023-11-19T07:22:03;4.33;;;1.07;;
38637;SDS011;24401;53.034;-3.030;2023-11-19T07:24:33;4.00;;;1.10;;
38637;SDS011;24401;53.034;-3.030;2023-11-19T07:27:03;12.77;;;1.30;;
38637;SDS011;24401;53.034;-3.030;2023-11-19T07:29:34;6.43;;;1.07;;
38637;SDS011;24401;53.034;-3.030;2023-11-19T07:32:04;5.20;;;1.27;;
38637;SDS011;24401;53.034;-3.030;2023-11-19T07:34:35;10.20;;;1.30;;
38637;SDS011;24401;53.034;-3.030;2023-11-19T07:37:05;8.73;;;1.30;;
38637;SDS011;24401;53.034;-3.030;2023-11-19T07:39:35;7.10;;;1.20;;
38637;SDS011;24401;53.034;-3.030;2023-11-19T07:42:08;8.13;;;1.38;;
38637;SDS011;24401;53.034;-3.030;2023-11-19T07:44:39;10.32;;;1.90;;
38637;SDS011;24401;53.034;-3.030;2023-11-19T07:47:09;12.30;;;1.47;;
38637;SDS011;24401;53.034;-3.030;2023-11-19T07:49:40;4.80;;;1.20;;
38637;SDS011;24401;53.034;-3.030;2023-11-19T07:52:10;11.40;;;1.90;;
38637;SDS011;24401;53.034;-3.030;2023-11-19T07:54:40;8.20;;;1.63;;
38637;SDS011;24401;53.034;-3.030;2023-11-19T07:57:10;10.87;;;1.30;;
38637;SDS011;24401;53.034;-3.030;2023-11-19T07:59:41;3.33;;;1.20;;
38637;SDS011;24401;53.034;-3.030;2023-11-19T08:02:11;5.13;;;1.10;;
38637;SDS011;24401;53.034;-3.030;2023-11-19T08:04:41;2.17;;;0.80;;
38637;SDS011;24401;53.034;-3.030;2023-11-19T08:07:14;8.48;;;1.40;;
38637;SDS011;24401;53.034;-3.030;2023-11-19T08:09:45;3.70;;;0.80;;
38637;SDS011;24401;53.034;-3.030;2023-11-19T08:12:15;7.00;;;1.53;;
38637;SDS011;24401;53.034;-3.030;2023-11-19T08:14:46;2.27;;;0.90;;
38637;SDS011;24401;53.034;-3.030;2023-11-19T08:17:16;3.20;;;0.77;;
38637;SDS011;24401;53.034;-3.030;2023-11-19T08:19:47;1.20;;;0.87;;
38637;SDS011;24401;53.034;-3.030;2023-11-19T08:22:17;4.10;;;0.80;;
38637;SDS011;24401;53.034;-3.030;2023-11-19T08:24:48;5.00;;;0.90;;
38637;SDS011;24401;53.034;-3.030;2023-11-19T08:27:18;2.80;;;0.60;;
38637;SDS011;24401;53.034;-3.030;2023-11-19T08:29:49;4.03;;;0.83;;
38637;SDS011;24401;53.034;-3.030;2023-11-19T08:32:20;4.25;;;0.80;;
38637;SDS011;24401;53.034;-3.030;2023-11-19T08:34:50;5.33;;;0.60;;
38637;SDS011;24401;53.034;-3.030;2023-11-19T08:37:21;1.80;;;0.67;;
38637;SDS011;24401;53.034;-3.030;2023-11-19T08:39:52;5.77;;;0.83;;
38637;SDS011;24401;53.034;-3.030;2023-11-19T08:42:22;4.10;;;0.80;;
38637;SDS011;24401;53.034;-3.030;2023-11-19T08:44:52;2.57;;;0.73;;
38637;SDS011;24401;53.034;-3.030;2023-11-19T08:47:24;2.30;;;0.63;;
38637;SDS011;24401;53.034;-3.030;2023-11-19T08:49:54;1.87;;;0.60;;
38637;SDS011;24401;53.034;-3.030;2023-11-19T08:52:25;5.37;;;0.97;;
38637;SDS011;24401;53.034;-3.030;2023-11-19T08:54:55;8.00;;;0.80;;
38637;SDS011;24401;53.034;-3.030;2023-11-19T08:57:26;2.87;;;0.50;;
38637;SDS011;24401;53.034;-3.030;2023-11-19T08:59:56;3.77;;;0.50;;
38637;SDS011;24401;53.034;-3.030;2023-11-19T09:02:26;0.43;;;0.23;;
38637;SDS011;24401;53.034;-3.030;2023-11-19T09:04:56;3.63;;;0.90;;
38637;SDS011;24401;53.034;-3.030;2023-11-19T09:07:26;1.40;;;0.50;;
38637;SDS011;24401;53.034;-3.030;2023-11-19T09:09:57;1.40;;;0.53;;
38637;SDS011;24401;53.034;-3.030;2023-11-19T09:12:27;5.27;;;0.70;;
38637;SDS011;24401;53.034;-3.030;2023-11-19T09:14:58;3.30;;;0.77;;
38637;SDS011;24401;53.034;-3.030;2023-11-19T09:17:28;3.57;;;0.97;;
38637;SDS011;24401;53.034;-3.030;2023-11-19T09:19:59;3.00;;;0.80;;
38637;SDS011;24401;53.034;-3.030;2023-11-19T09:22:29;3.30;;;1.30;;
38637;SDS011;24401;53.034;-3.030;2023-11-19T09:24:59;2.23;;;1.50;;
38637;SDS011;24401;53.034;-3.030;2023-11-19T09:27:30;9.10;;;1.20;;
38637;SDS011;24401;53.034;-3.030;2023-11-19T09:30:00;3.80;;;0.83;;
38637;SDS011;24401;53.034;-3.030;2023-11-19T09:32:30;5.03;;;0.63;;
38637;SDS011;24401;53.034;-3.030;2023-11-19T09:35:01;1.47;;;0.60;;
38637;SDS011;24401;53.034;-3.030;2023-11-19T09:37:32;1.98;;;0.45;;
38637;SDS011;24401;53.034;-3.030;2023-11-19T09:40:02;1.03;;;0.67;;
38637;SDS011;24401;53.034;-3.030;2023-11-19T09:42:33;1.67;;;0.67;;
38637;SDS011;24401;53.034;-3.030;2023-11-19T09:45:07;3.38;;;0.63;;
38637;SDS011;24401;53.034;-3.030;2023-11-19T09:47:43;0.85;;;0.47;;
38637;SDS011;24401;53.034;-3.030;2023-11-19T09:50:17;1.63;;;0.60;;
38637;SDS011;24401;53.034;-3.030;2023-11-19T09:52:50;1.55;;;0.50;;
38637;SDS011;24401;53.034;-3.030;2023-11-19T09:55:21;4.47;;;0.47;;
38637;SDS011;24401;53.034;-3.030;2023-11-19T09:57:51;1.30;;;0.50;;
38637;SDS011;24401;53.034;-3.030;2023-11-19T10:00:22;0.20;;;0.20;;
38637;SDS011;24401;53.034;-3.030;2023-11-19T10:02:53;1.27;;;0.33;;
38637;SDS011;24401;53.034;-3.030;2023-11-19T10:05:23;2.60;;;0.17;;
38637;SDS011;24401;53.034;-3.030;2023-11-19T10:07:54;1.10;;;0.83;;
38637;SDS011;24401;53.034;-3.030;2023-11-19T10:10:25;0.63;;;0.10;;
38637;SDS011;24401;53.034;-3.030;2023-11-19T10:12:55;0.37;;;0.10;;
38637;SDS011;24401;53.034;-3.030;2023-11-19T10:15:26;1.00;;;0.20;;
38637;SDS011;24401;53.034;-3.030;2023-11-19T10:17:57;2.50;;;0.20;;
38637;SDS011;24401;53.034;-3.030;2023-11-19T10:20:27;0.67;;;0.10;;
38637;SDS011;24401;53.034;-3.030;2023-11-19T10:22:57;3.30;;;0.10;;
38637;SDS011;24401;53.034;-3.030;2023-11-19T10:25:28;0.60;;;0.10;;
38637;SDS011;24401;53.034;-3.030;2023-11-19T10:27:59;0.43;;;0.10;;
38637;SDS011;24401;53.034;-3.030;2023-11-19T10:30:30;0.75;;;0.30;;
38637;SDS011;24401;53.034;-3.030;2023-11-19T10:35:35;1.33;;;0.40;;
38637;SDS011;24401;53.034;-3.030;2023-11-19T10:38:14;0.73;;;0.15;;
38637;SDS011;24401;53.034;-3.030;2023-11-19T10:40:45;0.50;;;0.17;;
38637;SDS011;24401;53.034;-3.030;2023-11-19T10:43:15;4.83;;;0.33;;
38637;SDS011;24401;53.034;-3.030;2023-11-19T10:45:46;1.30;;;0.40;;
38637;SDS011;24401;53.034;-3.030;2023-11-19T10:48:16;2.80;;;0.87;;
38637;SDS011;24401;53.034;-3.030;2023-11-19T10:50:49;1.57;;;0.20;;
38637;SDS011;24401;53.034;-3.030;2023-11-19T10:53:20;1.52;;;0.68;;
38637;SDS011;24401;53.034;-3.030;2023-11-19T10:55:51;1.58;;;0.52;;
38637;SDS011;24401;53.034;-3.030;2023-11-19T10:58:21;0.27;;;0.13;;
38637;SDS011;24401;53.034;-3.030;2023-11-19T11:00:54;0.30;;;0.20;;
38637;SDS011;24401;53.034;-3.030;2023-11-19T11:03:25;0.40;;;0.10;;
38637;SDS011;24401;53.034;-3.030;2023-11-19T11:05:58;1.08;;;0.40;;
38637;SDS011;24401;53.034;-3.030;2023-11-19T11:08:29;1.80;;;0.20;;
38637;SDS011;24401;53.034;-3.030;2023-11-19T11:11:00;0.83;;;0.20;;
38637;SDS011;24401;53.034;-3.030;2023-11-19T11:16:02;0.45;;;0.15;;
38637;SDS011;24401;53.034;-3.030;2023-11-19T11:18:34;0.13;;;0.10;;
38637;SDS011;24401;53.034;-3.030;2023-11-19T11:21:05;0.10;;;0.10;;
38637;SDS011;24401;53.034;-3.030;2023-11-19T11:23:40;1.33;;;0.20;;
38637;SDS011;24401;53.034;-3.030;2023-11-19T11:29:00;0.35;;;0.08;;
38637;SDS011;24401;53.034;-3.030;2023-11-19T11:31:35;0.30;;;0.30;;
38637;SDS011;24401;53.034;-3.030;2023-11-19T11:36:42;1.20;;;0.20;;
38637;SDS011;24401;53.034;-3.030;2023-11-19T11:39:16;1.35;;;0.90;;
38637;SDS011;24401;53.034;-3.030;2023-11-19T11:41:46;1.47;;;0.30;;
38637;SDS011;24401;53.034;-3.030;2023-11-19T11:44:16;1.10;;;0.30;;
38637;SDS011;24401;53.034;-3.030;2023-11-19T11:46:55;1.17;;;0.30;;
38637;SDS011;24401;53.034;-3.030;2023-11-19T11:49:27;0.50;;;0.22;;
38637;SDS011;24401;53.034;-3.030;2023-11-19T11:51:57;1.23;;;0.20;;
38637;SDS011;24401;53.034;-3.030;2023-11-19T11:54:28;2.70;;;0.47;;
38637;SDS011;24401;53.034;-3.030;2023-11-19T11:59:36;3.50;;;0.60;;
38637;SDS011;24401;53.034;-3.030;2023-11-19T12:02:07;2.53;;;0.35;;
38637;SDS011;24401;53.034;-3.030;2023-11-19T12:04:42;3.55;;;0.55;;
38637;SDS011;24401;53.034;-3.030;2023-11-19T12:07:13;0.52;;;0.30;;
38637;SDS011;24401;53.034;-3.030;2023-11-19T12:09:47;1.95;;;0.20;;
38637;SDS011;24401;53.034;-3.030;2023-11-19T12:12:18;1.02;;;0.17;;
38637;SDS011;24401;53.034;-3.030;2023-11-19T12:20:07;0.80;;;0.28;;
38637;SDS011;24401;53.034;-3.030;2023-11-19T12:22:41;0.55;;;0.38;;
38637;SDS011;24401;53.034;-3.030;2023-11-19T12:25:12;0.87;;;0.33;;
38637;SDS011;24401;53.034;-3.030;2023-11-19T12:27:44;2.85;;;0.38;;
38637;SDS011;24401;53.034;-3.030;2023-11-19T12:30:18;0.80;;;0.40;;
38637;SDS011;24401;53.034;-3.030;2023-11-19T12:44:55;1.00;;;0.70;;
38637;SDS011;24401;53.034;-3.030;2023-11-19T12:47:26;6.00;;;1.58;;
38637;SDS011;24401;53.034;-3.030;2023-11-19T12:49:57;1.20;;;0.37;;
38637;SDS011;24401;53.034;-3.030;2023-11-19T12:52:27;1.23;;;0.37;;
38637;SDS011;24401;53.034;-3.030;2023-11-19T12:54:58;0.43;;;0.40;;
38637;SDS011;24401;53.034;-3.030;2023-11-19T12:57:38;1.17;;;0.37;;
38637;SDS011;24401;53.034;-3.030;2023-11-19T13:00:18;3.80;;;0.60;;
38637;SDS011;24401;53.034;-3.030;2023-11-19T13:02:52;0.50;;;0.20;;
38637;SDS011;24401;53.034;-3.030;2023-11-19T13:08:06;2.55;;;0.57;;
38637;SDS011;24401;53.034;-3.030;2023-11-19T13:10:51;6.10;;;0.77;;
38637;SDS011;24401;53.034;-3.030;2023-11-19T13:13:22;1.15;;;0.45;;
38637;SDS011;24401;53.034;-3.030;2023-11-19T13:15:52;4.33;;;0.53;;
38637;SDS011;24401;53.034;-3.030;2023-11-19T13:18:22;3.83;;;0.57;;
38637;SDS011;24401;53.034;-3.030;2023-11-19T13:20:53;1.50;;;0.20;;
38637;SDS011;24401;53.034;-3.030;2023-11-19T13:23:27;2.13;;;0.55;;
38637;SDS011;24401;53.034;-3.030;2023-11-19T13:25:57;0.47;;;0.20;;
38637;SDS011;24401;53.034;-3.030;2023-11-19T13:28:27;0.80;;;0.30;;
38637;SDS011;24401;53.034;-3.030;2023-11-19T13:30:57;2.03;;;0.70;;
38637;SDS011;24401;53.034;-3.030;2023-11-19T13:33:28;2.70;;;0.73;;
38637;SDS011;24401;53.034;-3.030;2023-11-19T13:35:59;1.10;;;0.50;;
38637;SDS011;24401;53.034;-3.030;2023-11-19T13:38:35;3.53;;;0.50;;
38637;SDS011;24401;53.034;-3.030;2023-11-19T13:41:06;0.37;;;0.23;;
38637;SDS011;24401;53.034;-3.030;2023-11-19T13:43:36;0.33;;;0.23;;
38637;SDS011;24401;53.034;-3.030;2023-11-19T13:46:06;0.63;;;0.30;;
38637;SDS011;24401;53.034;-3.030;2023-11-19T13:48:39;1.55;;;0.30;;
38637;SDS011;24401;53.034;-3.030;2023-11-19T13:51:10;0.53;;;0.20;;
38637;SDS011;24401;53.034;-3.030;2023-11-19T13:53:40;1.33;;;0.37;;
38637;SDS011;24401;53.034;-3.030;2023-11-19T13:56:10;1.07;;;0.30;;
38637;SDS011;24401;53.034;-3.030;2023-11-19T13:58:41;1.07;;;0.33;;
38637;SDS011;24401;53.034;-3.030;2023-11-19T14:01:11;1.30;;;0.50;;
38637;SDS011;24401;53.034;-3.030;2023-11-19T14:03:42;0.38;;;0.08;;
38637;SDS011;24401;53.034;-3.030;2023-11-19T14:06:13;0.57;;;0.30;;
38637;SDS011;24401;53.034;-3.030;2023-11-19T14:08:43;1.20;;;0.47;;
38637;SDS011;24401;53.034;-3.030;2023-11-19T14:11:13;1.53;;;0.30;;
38637;SDS011;24401;53.034;-3.030;2023-11-19T14:13:43;2.07;;;0.47;;
38637;SDS011;24401;53.034;-3.030;2023-11-19T14:16:14;1.93;;;1.10;;
38637;SDS011;24401;53.034;-3.030;2023-11-19T14:18:44;0.67;;;0.43;;
38637;SDS011;24401;53.034;-3.030;2023-11-19T14:21:14;1.43;;;0.37;;
38637;SDS011;24401;53.034;-3.030;2023-11-19T14:23:45;0.97;;;0.20;;
38637;SDS011;24401;53.034;-3.030;2023-11-19T14:26:15;1.77;;;0.60;;
38637;SDS011;24401;53.034;-3.030;2023-11-19T14:28:45;1.10;;;0.30;;
38637;SDS011;24401;53.034;-3.030;2023-11-19T14:31:15;3.63;;;0.40;;
38637;SDS011;24401;53.034;-3.030;2023-11-19T14:33:46;1.80;;;0.40;;
38637;SDS011;24401;53.034;-3.030;2023-11-19T14:36:16;1.07;;;0.30;;
38637;SDS011;24401;53.034;-3.030;2023-11-19T14:38:46;1.27;;;0.40;;
38637;SDS011;24401;53.034;-3.030;2023-11-19T14:41:16;1.20;;;0.40;;
38637;SDS011;24401;53.034;-3.030;2023-11-19T14:43:47;0.67;;;0.50;;
38637;SDS011;24401;53.034;-3.030;2023-11-19T14:46:18;0.50;;;0.30;;
38637;SDS011;24401;53.034;-3.030;2023-11-19T14:48:48;3.17;;;0.40;;
38637;SDS011;24401;53.034;-3.030;2023-11-19T14:51:18;2.37;;;0.40;;
38637;SDS011;24401;53.034;-3.030;2023-11-19T14:53:49;1.23;;;0.40;;
38637;SDS011;24401;53.034;-3.030;2023-11-19T14:56:19;1.53;;;0.40;;
38637;SDS011;24401;53.034;-3.030;2023-11-19T14:58:49;2.30;;;0.33;;
38637;SDS011;24401;53.034;-3.030;2023-11-19T15:01:21;5.20;;;0.60;;
38637;SDS011;24401;53.034;-3.030;2023-11-19T15:03:51;1.60;;;0.43;;
38637;SDS011;24401;53.034;-3.030;2023-11-19T15:06:24;0.87;;;0.40;;
38637;SDS011;24401;53.034;-3.030;2023-11-19T15:08:57;0.55;;;0.40;;
38637;SDS011;24401;53.034;-3.030;2023-11-19T15:11:27;0.87;;;0.30;;
38637;SDS011;24401;53.034;-3.030;2023-11-19T15:13:57;0.90;;;0.40;;
38637;SDS011;24401;53.034;-3.030;2023-11-19T15:16:27;1.13;;;0.30;;
38637;SDS011;24401;53.034;-3.030;2023-11-19T15:19:02;1.65;;;0.35;;
38637;SDS011;24401;53.034;-3.030;2023-11-19T15:21:33;2.60;;;0.33;;
38637;SDS011;24401;53.034;-3.030;2023-11-19T15:24:04;1.90;;;0.33;;
38637;SDS011;24401;53.034;-3.030;2023-11-19T15:26:37;0.47;;;0.40;;
38637;SDS011;24401;53.034;-3.030;2023-11-19T15:29:07;0.37;;;0.30;;
38637;SDS011;24401;53.034;-3.030;2023-11-19T15:31:38;2.40;;;0.40;;
38637;SDS011;24401;53.034;-3.030;2023-11-19T15:34:08;1.10;;;0.40;;
38637;SDS011;24401;53.034;-3.030;2023-11-19T15:36:39;2.53;;;0.20;;
38637;SDS011;24401;53.034;-3.030;2023-11-19T15:39:09;0.90;;;0.50;;
38637;SDS011;24401;53.034;-3.030;2023-11-19T15:41:39;1.27;;;0.40;;